Time;durP1;ratioP1;P1;durP2;ratioP2;P2;SDS_P1;SDS_P2;PMS_P1;PMS_P2;Temp;Humidity;BMP_temperature;BMP_pressure;BME280_temperature;BME280_humidity;BME280_pressure;Samples;Min_cycle;Max_cycle;Signal;HPM_P1;HPM_P2
2023/02/27 00:02:16;;;;;;;6.38;3.38;;;;;;;2.02;34.97;102323.31;5049754;28;20048;-76
2023/02/27 00:04:44;;;;;;;4.15;2.35;;;;;;;2.01;34.66;102317.94;5045365;28;20123;-76
2023/02/27 00:07:13;;;;;;;4.93;2.70;;;;;;;1.96;34.84;102319.91;5030249;28;20045;-76
2023/02/27 00:09:42;;;;;;;4.72;2.67;;;;;;;1.93;34.84;102328.97;5044091;28;20047;-76
2023/02/27 00:12:10;;;;;;;4.70;2.90;;;;;;;1.85;34.99;102323.78;5066597;28;20033;-75
2023/02/27 00:14:38;;;;;;;5.13;3.03;;;;;;;1.82;34.95;102323.91;5046636;28;20044;-76
2023/02/27 00:17:06;;;;;;;4.85;2.85;;;;;;;1.78;35.14;102326.69;5061635;28;20056;-75
2023/02/27 00:19:34;;;;;;;4.35;2.72;;;;;;;1.75;35.11;102326.81;5042588;28;20040;-76
2023/02/27 00:22:02;;;;;;;4.28;2.75;;;;;;;1.70;35.02;102334.13;5059473;28;20044;-75
2023/02/27 00:24:30;;;;;;;4.25;2.95;;;;;;;1.64;35.18;102334.31;5055671;28;20042;-75
2023/02/27 00:26:59;;;;;;;6.22;3.60;;;;;;;1.60;35.17;102322.69;5056923;28;20053;-76
2023/02/27 00:29:27;;;;;;;6.05;3.05;;;;;;;1.59;35.25;102329.00;5059902;28;20051;-76
2023/02/27 00:31:55;;;;;;;5.45;2.92;;;;;;;1.54;35.41;102330.06;5042265;28;20139;-76
2023/02/27 00:34:24;;;;;;;4.35;2.85;;;;;;;1.54;35.36;102328.25;5042734;28;20535;-76
2023/02/27 00:36:53;;;;;;;5.22;2.95;;;;;;;1.53;35.50;102333.69;5050452;28;20063;-75
2023/02/27 00:39:20;;;;;;;7.00;3.03;;;;;;;1.52;35.52;102331.91;5032865;28;20455;-76
2023/02/27 00:41:48;;;;;;;4.38;2.58;;;;;;;1.51;35.52;102331.03;5049539;28;20411;-75
2023/02/27 00:44:18;;;;;;;5.43;2.63;;;;;;;1.51;35.82;102328.31;5035144;28;20505;-76
2023/02/27 00:46:45;;;;;;;5.10;2.53;;;;;;;1.49;35.60;102324.81;5038638;28;20061;-75
2023/02/27 00:49:13;;;;;;;4.80;2.75;;;;;;;1.49;35.39;102331.09;5044206;28;20044;-75
2023/02/27 00:51:41;;;;;;;5.68;3.03;;;;;;;1.49;35.62;102333.78;5042496;28;20045;-76
2023/02/27 00:54:09;;;;;;;4.43;2.95;;;;;;;1.47;35.65;102323.97;5042671;28;20044;-74
2023/02/27 00:56:37;;;;;;;4.72;3.10;;;;;;;1.46;35.70;102330.28;5043251;28;20049;-75
2023/02/27 00:59:05;;;;;;;4.63;2.95;;;;;;;1.45;35.46;102329.38;5032816;28;20423;-75
2023/02/27 01:01:34;;;;;;;4.95;3.10;;;;;;;1.44;35.88;102332.13;5044664;28;20554;-75
2023/02/27 01:04:02;;;;;;;5.53;2.92;;;;;;;1.44;35.71;102333.00;5034211;28;20048;-75
2023/02/27 01:06:30;;;;;;;5.10;2.92;;;;;;;1.41;36.01;102327.72;5050316;28;20123;-75
2023/02/27 01:08:58;;;;;;;4.63;2.78;;;;;;;1.40;35.59;102325.94;5044456;28;20505;-76
2023/02/27 01:11:26;;;;;;;4.63;2.88;;;;;;;1.38;35.66;102324.19;5064463;28;20063;-76
2023/02/27 01:13:54;;;;;;;4.78;3.10;;;;;;;1.37;35.88;102323.31;5045668;28;20410;-76
2023/02/27 01:16:23;;;;;;;4.07;2.90;;;;;;;1.38;35.74;102324.19;5063807;28;20052;-77
2023/02/27 01:18:53;;;;;;;4.40;2.90;;;;;;;1.37;36.20;102325.13;5046685;28;20041;-76
2023/02/27 01:21:23;;;;;;;4.70;2.83;;;;;;;1.35;35.81;102325.16;5049241;28;20045;-76
2023/02/27 01:23:51;;;;;;;4.53;3.00;;;;;;;1.33;35.92;102320.75;5056653;28;20521;-77
2023/02/27 01:26:19;;;;;;;4.88;2.85;;;;;;;1.33;36.05;102318.03;5042841;28;20060;-76
2023/02/27 01:28:47;;;;;;;5.13;3.35;;;;;;;1.32;35.84;102322.56;5042046;28;20417;-77
2023/02/27 01:31:15;;;;;;;5.35;3.00;;;;;;;1.31;36.11;102315.38;5062726;28;20408;-77
2023/02/27 01:33:43;;;;;;;5.45;3.20;;;;;;;1.28;36.28;102314.56;5059296;28;20102;-76
2023/02/27 01:36:12;;;;;;;6.38;3.40;;;;;;;1.29;35.98;102310.94;5049305;28;20040;-77
2023/02/27 01:38:42;;;;;;;6.32;3.30;;;;;;;1.26;36.07;102314.59;5035865;28;20044;-76
2023/02/27 01:41:10;;;;;;;4.80;3.05;;;;;;;1.21;36.25;102315.66;5060631;28;20407;-76
2023/02/27 01:43:54;;;;;;;5.07;3.38;;;;;;;1.23;36.84;102321.91;5047507;28;20048;-76
2023/02/27 01:46:23;;;;;;;5.10;3.30;;;;;;;1.19;36.25;102315.69;5063419;28;20044;-76
2023/02/27 01:48:54;;;;;;;5.47;3.10;;;;;;;1.20;36.17;102316.56;5039520;28;20057;-76
2023/02/27 01:51:23;;;;;;;4.70;3.00;;;;;;;1.19;36.55;102318.38;5068582;28;20052;-74
2023/02/27 01:53:53;;;;;;;5.85;2.92;;;;;;;1.15;36.47;102318.50;5045447;28;20040;-75
2023/02/27 01:56:24;;;;;;;5.38;3.40;;;;;;;1.14;36.32;102314.94;5046543;28;20055;-75
2023/02/27 01:58:56;;;;;;;4.93;2.80;;;;;;;1.14;36.34;102319.44;5037538;28;20052;-74
2023/02/27 02:01:25;;;;;;;4.63;3.05;;;;;;;1.10;36.72;102322.19;5044396;28;20044;-75
2023/02/27 02:04:00;;;;;;;4.82;2.80;;;;;;;1.13;36.81;102325.75;5052282;28;20056;-76
2023/02/27 02:06:35;;;;;;;4.65;3.38;;;;;;;1.11;36.84;102315.88;5049935;28;20074;-76
2023/02/27 02:09:06;;;;;;;4.40;2.78;;;;;;;1.11;36.68;102320.38;5040027;28;20106;-77
2023/02/27 02:11:34;;;;;;;3.78;2.72;;;;;;;1.12;36.69;102330.25;5041627;28;20198;-76
2023/02/27 02:14:02;;;;;;;5.03;2.60;;;;;;;1.12;36.58;102324.84;5035763;28;20044;-77
2023/02/27 02:16:50;;;;;;;4.95;2.95;;;;;;;1.15;37.08;102326.59;5030297;28;20049;-76
2023/02/27 02:19:52;;;;;;;4.13;2.65;;;;;;;1.14;37.31;102319.44;5056861;28;20041;-76
2023/02/27 02:23:04;;;;;;;4.45;2.30;;;;;;;1.15;37.33;102326.59;5042211;28;20422;-76
2023/02/27 02:26:05;;;;;;;4.68;2.58;;;;;;;1.14;37.49;102320.31;5021764;28;20309;-76
2023/02/27 02:28:58;;;;;;;4.53;2.50;;;;;;;1.15;37.34;102318.50;5037045;28;20442;-76
2023/02/27 02:31:47;;;;;;;;;;;;;;;0.92;37.40;102319.97;5039441;28;20045;-76
2023/02/27 02:34:51;;;;;;;4.20;2.33;;;;;;;1.10;37.42;102324.00;5038468;28;19928;-75
2023/02/27 02:38:02;;;;;;;4.43;2.40;;;;;;;1.14;37.11;102325.72;5047442;28;20143;-76
2023/02/27 02:40:38;;;;;;;4.00;2.65;;;;;;;1.13;37.06;102315.84;5058270;28;20635;-77
2023/02/27 02:43:10;;;;;;;4.22;2.50;;;;;;;1.13;36.95;102315.84;5041886;28;20052;-75
2023/02/27 02:45:48;;;;;;;4.13;2.45;;;;;;;1.11;37.03;102312.28;5060106;28;20635;-75
2023/02/27 02:48:21;;;;;;;4.00;2.92;;;;;;;1.12;36.67;102308.69;5046349;28;20050;-76
2023/02/27 02:50:54;;;;;;;4.10;2.45;;;;;;;1.11;36.89;102315.00;5053080;28;20068;-76
2023/02/27 02:53:31;;;;;;;4.45;2.80;;;;;;;1.11;37.07;102310.47;5053024;28;20040;-76
2023/02/27 02:56:10;;;;;;;;;;;;;;;0.89;37.53;102306.56;5065873;28;20052;-76
2023/02/27 02:58:46;;;;;;;4.53;2.50;;;;;;;1.05;37.34;102315.16;5048078;28;19928;-75
2023/02/27 03:01:16;;;;;;;5.60;2.85;;;;;;;1.07;36.68;102316.00;5053090;28;20049;-75
2023/02/27 03:03:51;;;;;;;5.40;3.13;;;;;;;1.07;37.32;102316.91;5040162;28;20075;-75
2023/02/27 03:06:25;;;;;;;3.80;2.58;;;;;;;1.06;37.05;102309.72;5042887;28;20143;-74
2023/02/27 03:08:56;;;;;;;3.95;2.60;;;;;;;1.04;37.20;102311.56;5043305;28;20083;-75
2023/02/27 03:11:30;;;;;;;5.60;2.92;;;;;;;1.03;37.11;102307.09;5051754;28;20094;-77
2023/02/27 03:14:05;;;;;;;5.13;2.95;;;;;;;1.02;36.79;102321.50;5037809;28;20392;-77
2023/02/27 03:16:39;;;;;;;4.95;2.83;;;;;;;1.01;37.28;102318.88;5062659;28;20047;-74
2023/02/27 03:19:12;;;;;;;5.57;2.97;;;;;;;0.99;37.21;102323.41;5048715;28;20509;-75
2023/02/27 03:21:46;;;;;;;4.43;2.90;;;;;;;0.96;37.03;102329.75;5056254;28;20068;-75
2023/02/27 03:24:20;;;;;;;5.50;3.13;;;;;;;0.97;37.34;102327.94;5035903;28;20314;-75
2023/02/27 03:26:53;;;;;;;5.00;2.88;;;;;;;0.95;37.14;102335.16;5046551;28;20541;-75
2023/02/27 03:29:29;;;;;;;4.55;3.10;;;;;;;0.93;37.40;102337.03;5048831;28;20037;-75
2023/02/27 03:32:03;;;;;;;4.60;2.90;;;;;;;0.92;37.11;102340.66;5041799;28;20040;-74
2023/02/27 03:34:34;;;;;;;4.78;2.72;;;;;;;0.90;37.46;102339.78;5043109;28;20224;-75
2023/02/27 03:37:17;;;;;;;4.60;2.78;;;;;;;0.90;37.45;102342.50;5047736;28;20136;-75
2023/02/27 03:39:47;;;;;;;4.65;2.88;;;;;;;0.87;37.46;102348.78;5059266;28;20538;-75
2023/02/27 03:42:28;;;;;;;5.38;2.92;;;;;;;0.86;37.60;102341.63;5043893;28;20045;-75
2023/02/27 03:45:24;;;;;;;4.18;2.75;;;;;;;0.84;37.21;102345.31;5057499;28;20064;-75
2023/02/27 03:47:52;;;;;;;5.07;2.90;;;;;;;0.81;37.17;102340.84;5044563;28;20104;-74
2023/02/27 03:50:21;;;;;;;5.72;2.92;;;;;;;0.81;37.23;102350.75;5033553;28;20055;-75
2023/02/27 03:52:50;;;;;;;6.95;3.10;;;;;;;0.80;37.32;102348.97;5049011;28;20056;-75
2023/02/27 03:55:21;;;;;;;4.78;2.70;;;;;;;0.79;37.38;102345.38;5033089;28;20045;-75
2023/02/27 03:57:51;;;;;;;4.82;2.70;;;;;;;0.78;37.40;102348.13;5043590;28;20500;-75
2023/02/27 04:00:22;;;;;;;6.00;3.10;;;;;;;0.75;37.20;102343.72;5041474;28;20048;-75
2023/02/27 04:02:51;;;;;;;4.93;3.13;;;;;;;0.74;37.31;102355.41;5039257;28;20072;-75
2023/02/27 04:05:23;;;;;;;4.72;3.13;;;;;;;0.71;37.28;102353.66;5048489;28;20507;-74
2023/02/27 04:08:14;;;;;;;6.10;3.00;;;;;;;0.71;37.93;102353.66;5034901;28;20125;-76
2023/02/27 04:10:59;;;;;;;5.15;3.15;;;;;;;0.70;37.98;102361.75;5061113;28;20103;-75
2023/02/27 04:13:44;;;;;;;5.43;3.08;;;;;;;0.67;37.97;102353.78;5067018;28;20040;-75
2023/02/27 04:16:39;;;;;;;6.65;3.67;;;;;;;0.65;37.98;102361.88;5069913;28;20083;-76
2023/02/27 04:19:29;;;;;;;5.22;3.40;;;;;;;0.65;38.08;102369.06;5049319;28;20044;-76
2023/02/27 04:22:09;;;;;;;7.13;3.50;;;;;;;0.63;37.99;102365.53;5038136;28;20413;-76
2023/02/27 04:24:46;;;;;;;5.50;2.85;;;;;;;0.60;37.59;102369.16;5049850;28;20076;-75
2023/02/27 04:27:24;;;;;;;6.63;3.47;;;;;;;0.60;38.09;102365.63;5040864;28;20508;-75
2023/02/27 04:29:59;;;;;;;5.90;3.35;;;;;;;0.58;37.87;102370.16;5064529;28;20048;-75
2023/02/27 04:32:38;;;;;;;5.40;3.22;;;;;;;0.58;37.94;102372.84;5032191;28;20044;-75
2023/02/27 04:35:11;;;;;;;8.07;3.88;;;;;;;0.53;37.56;102372.91;5044086;28;20045;-74
2023/02/27 04:37:47;;;;;;;6.60;4.00;;;;;;;0.52;37.98;102367.59;5041585;28;20049;-76
2023/02/27 04:40:19;;;;;;;5.65;3.72;;;;;;;0.48;37.63;102366.75;5039780;28;20052;-74
2023/02/27 04:42:53;;;;;;;5.20;3.13;;;;;;;0.48;37.73;102369.44;5046845;28;20049;-76
2023/02/27 04:45:27;;;;;;;4.90;3.05;;;;;;;0.47;38.12;102367.66;5032703;28;20045;-76
2023/02/27 04:48:00;;;;;;;5.53;3.47;;;;;;;0.45;37.88;102369.50;5066831;28;20067;-76
2023/02/27 04:50:32;;;;;;;6.00;3.15;;;;;;;0.43;37.81;102370.47;5049100;28;20124;-75
2023/02/27 04:53:05;;;;;;;5.38;3.22;;;;;;;0.42;37.96;102366.91;5056266;28;20040;-75
2023/02/27 04:55:35;;;;;;;;;;;;;;;0.21;38.43;102370.03;5060218;28;20389;-76
2023/02/27 04:58:08;;;;;;;6.70;3.28;;;;;;;0.35;37.95;102374.19;5032049;28;19927;-75
2023/02/27 05:00:41;;;;;;;5.43;3.10;;;;;;;0.36;38.02;102384.06;5034840;28;20044;-75
2023/02/27 05:03:16;;;;;;;4.82;2.75;;;;;;;0.36;37.79;102386.75;5035619;28;20091;-75
2023/02/27 05:05:46;;;;;;;5.30;3.28;;;;;;;0.34;37.93;102383.22;5044544;28;20041;-75
2023/02/27 05:08:21;;;;;;;5.43;3.40;;;;;;;0.34;38.16;102387.72;5058343;28;20495;-76
2023/02/27 05:10:52;;;;;;;6.28;3.80;;;;;;;0.31;38.02;102385.97;5051864;28;20037;-75
2023/02/27 05:13:24;;;;;;;5.18;3.50;;;;;;;0.30;37.80;102383.28;5041060;28;20076;-75
2023/02/27 05:15:58;;;;;;;7.13;3.70;;;;;;;0.28;38.25;102386.00;5068545;28;20036;-75
2023/02/27 05:18:26;;;;;;;6.53;3.65;;;;;;;0.25;38.00;102378.03;5041227;28;20047;-76
2023/02/27 05:21:05;;;;;;;6.28;3.40;;;;;;;0.27;38.00;102391.47;5057979;28;20056;-76
2023/02/27 05:23:39;;;;;;;6.40;4.05;;;;;;;0.25;38.19;102387.91;5068142;28;20028;-75
2023/02/27 05:26:15;;;;;;;5.70;3.42;;;;;;;0.24;38.35;102395.09;5052976;28;20076;-75
2023/02/27 05:28:52;;;;;;;6.43;3.65;;;;;;;0.23;38.39;102400.50;5052187;28;20091;-76
2023/02/27 05:31:28;;;;;;;5.68;3.50;;;;;;;0.21;38.43;102396.94;5054459;28;20511;-75
2023/02/27 05:34:01;;;;;;;7.18;4.07;;;;;;;0.19;38.22;102401.50;5057766;28;20048;-76
2023/02/27 05:36:32;;;;;;;;;;;;;;;-0.05;38.92;102405.53;5048708;28;20047;-76
2023/02/27 05:39:04;;;;;;;7.22;3.75;;;;;;;0.10;38.39;102413.34;5065839;28;19927;-76
2023/02/27 05:41:34;;;;;;;5.22;3.35;;;;;;;0.13;38.01;102415.94;5051153;28;20135;-75
2023/02/27 05:44:08;;;;;;;7.38;4.05;;;;;;;0.11;38.26;102419.56;5068305;28;20079;-76
2023/02/27 05:46:43;;;;;;;7.28;3.70;;;;;;;0.10;38.57;102421.41;5038020;28;20155;-75
2023/02/27 05:49:16;;;;;;;6.97;3.83;;;;;;;0.09;38.35;102425.00;5047456;28;20453;-75
2023/02/27 05:51:48;;;;;;;5.88;3.47;;;;;;;0.07;38.36;102420.56;5055945;28;20459;-75
2023/02/27 05:54:22;;;;;;;5.87;3.77;;;;;;;0.05;38.45;102422.38;5043703;28;20519;-75
2023/02/27 05:56:54;;;;;;;5.63;3.97;;;;;;;0.06;38.45;102424.16;5049417;28;20040;-75
2023/02/27 05:59:31;;;;;;;6.50;4.18;;;;;;;0.05;38.67;102420.59;5039873;28;20049;-75
2023/02/27 06:02:00;;;;;;;5.72;3.63;;;;;;;0.03;38.55;102421.53;5065640;28;20123;-75
2023/02/27 06:04:28;;;;;;;7.78;3.97;;;;;;;0.02;38.20;102422.47;5035896;28;20045;-76
2023/02/27 06:06:57;;;;;;;7.65;3.72;;;;;;;0.02;38.42;102428.75;5058880;28;20124;-75
2023/02/27 06:09:24;;;;;;;7.65;3.70;;;;;;;-0.00;38.42;102432.38;5057961;28;20044;-75
2023/02/27 06:11:52;;;;;;;6.72;3.97;;;;;;;-0.01;38.34;102436.88;5038868;28;20061;-75
2023/02/27 06:14:20;;;;;;;5.93;3.83;;;;;;;-0.01;38.58;102442.25;5031206;28;20551;-75
2023/02/27 06:16:48;;;;;;;6.47;4.07;;;;;;;-0.01;38.51;102442.25;5068904;28;20562;-75
2023/02/27 06:19:17;;;;;;;5.85;4.03;;;;;;;-0.02;38.45;102446.75;5036069;28;20055;-75
2023/02/27 06:21:45;;;;;;;7.10;4.03;;;;;;;-0.03;38.56;102444.97;5065147;28;20048;-75
2023/02/27 06:24:13;;;;;;;5.68;4.10;;;;;;;-0.03;38.56;102447.66;5043902;28;20044;-75
2023/02/27 06:26:41;;;;;;;6.68;3.83;;;;;;;-0.03;38.75;102449.44;5039420;28;20049;-76
2023/02/27 06:29:08;;;;;;;7.05;4.13;;;;;;;-0.04;38.48;102461.13;5035333;28;20412;-75
2023/02/27 06:31:36;;;;;;;9.27;4.32;;;;;;;-0.04;38.66;102463.81;5049055;28;20044;-75
2023/02/27 06:34:04;;;;;;;6.85;4.10;;;;;;;-0.06;38.88;102461.16;5032761;28;20048;-73
2023/02/27 06:36:33;;;;;;;6.57;3.78;;;;;;;-0.05;38.80;102471.00;5065426;28;20111;-74
2023/02/27 06:39:01;;;;;;;7.15;4.40;;;;;;;-0.06;38.65;102468.38;5057265;28;20063;-75
2023/02/27 06:41:29;;;;;;;8.23;4.00;;;;;;;-0.06;38.45;102469.22;5053748;28;20043;-75
2023/02/27 06:43:57;;;;;;;8.48;4.10;;;;;;;-0.07;38.83;102463.91;5056512;28;20069;-75
2023/02/27 06:46:25;;;;;;;8.18;4.45;;;;;;;-0.07;38.53;102471.97;5050735;28;20037;-75
2023/02/27 06:48:54;;;;;;;6.00;3.78;;;;;;;-0.08;38.82;102470.19;5050096;28;20399;-75
2023/02/27 06:51:21;;;;;;;5.97;3.97;;;;;;;-0.09;39.05;102477.38;5032305;28;20477;-76
2023/02/27 06:53:51;;;;;;;6.40;3.83;;;;;;;-0.07;38.93;102475.56;5048367;28;20136;-76
2023/02/27 06:56:19;;;;;;;5.53;3.22;;;;;;;-0.06;39.30;102477.31;5064238;28;20033;-75
2023/02/27 06:58:47;;;;;;;5.70;3.92;;;;;;;-0.02;39.80;102479.03;5052704;28;20048;-75
2023/02/27 07:01:14;;;;;;;6.38;4.32;;;;;;;0.06;40.49;102478.00;5030449;28;20049;-75
2023/02/27 07:03:43;;;;;;;6.38;4.35;;;;;;;0.16;40.87;102479.63;5029836;28;20135;-75
2023/02/27 07:06:12;;;;;;;6.40;3.90;;;;;;;0.31;41.28;102482.91;5043410;28;20412;-75
2023/02/27 07:08:39;;;;;;;6.55;4.13;;;;;;;0.48;41.44;102487.09;5046007;28;20053;-76
2023/02/27 07:11:29;;;;;;;5.68;3.42;;;;;;;0.70;41.83;102480.31;5055742;28;20052;-75
2023/02/27 07:14:00;;;;;;;4.65;3.65;;;;;;;0.91;41.92;102477.22;5056346;28;20048;-76
2023/02/27 07:16:28;;;;;;;7.00;4.25;;;;;;;1.12;41.94;102481.25;5039615;28;20069;-75
2023/02/27 07:18:56;;;;;;;6.20;3.75;;;;;;;1.35;41.96;102483.41;5056847;28;20050;-75
2023/02/27 07:21:24;;;;;;;6.93;3.78;;;;;;;1.58;41.93;102488.28;5052149;28;20551;-63
2023/02/27 07:23:52;;;;;;;6.90;4.10;;;;;;;1.81;41.78;102492.19;5032581;28;20052;-74
2023/02/27 07:26:20;;;;;;;5.15;3.55;;;;;;;2.04;42.06;102497.00;5033570;28;20124;-74
2023/02/27 07:28:49;;;;;;;5.53;3.78;;;;;;;2.29;41.68;102499.03;5051072;28;20061;-74
2023/02/27 07:31:17;;;;;;;6.85;3.90;;;;;;;2.49;41.67;102499.41;5052523;28;20540;-75
2023/02/27 07:33:45;;;;;;;6.97;3.72;;;;;;;2.71;41.53;102502.38;5038481;28;20060;-76
2023/02/27 07:36:13;;;;;;;5.78;3.63;;;;;;;2.92;41.46;102502.63;5052948;28;20043;-73
2023/02/27 07:38:40;;;;;;;5.85;3.63;;;;;;;3.13;41.16;102508.34;5033393;28;20049;-74
2023/02/27 07:41:08;;;;;;;6.20;3.55;;;;;;;3.31;41.12;102502.38;5056445;28;20059;-75
2023/02/27 07:44:00;;;;;;;9.13;4.40;;;;;;;3.53;40.81;102510.72;5039480;28;20124;-75
2023/02/27 07:46:28;;;;;;;6.30;3.92;;;;;;;3.71;40.71;102515.53;5056777;28;20072;-75
2023/02/27 07:48:56;;;;;;;6.50;3.92;;;;;;;3.88;40.58;102510.44;5051686;28;20459;-75
2023/02/27 07:51:24;;;;;;;5.88;4.00;;;;;;;4.04;40.37;102513.53;5053776;28;20499;-76
2023/02/27 07:53:52;;;;;;;6.55;3.85;;;;;;;4.19;39.95;102515.72;5056963;28;20516;-75
2023/02/27 07:56:20;;;;;;;5.25;3.60;;;;;;;4.33;39.51;102523.34;5035319;28;20502;-76
2023/02/27 07:58:48;;;;;;;8.88;4.30;;;;;;;4.45;39.17;102518.41;5051954;28;20068;-75
2023/02/27 08:01:17;;;;;;;5.97;3.75;;;;;;;4.57;38.75;102518.88;5039588;28;20052;-75
2023/02/27 08:03:45;;;;;;;5.85;3.92;;;;;;;4.65;38.42;102517.66;5036991;28;20064;-75
2023/02/27 08:06:13;;;;;;;5.72;4.20;;;;;;;4.69;37.93;102511.19;5031823;28;20040;-76
2023/02/27 08:08:41;;;;;;;6.80;4.82;;;;;;;4.74;37.61;102514.59;5031875;28;20620;-76
2023/02/27 08:11:09;;;;;;;8.63;4.07;;;;;;;4.74;37.21;102513.72;5036500;28;20400;-75
2023/02/27 08:13:37;;;;;;;6.10;4.38;;;;;;;4.73;37.13;102511.94;5037602;28;20040;-75
2023/02/27 08:16:26;;;;;;;5.65;3.90;;;;;;;4.71;36.97;102505.72;5035974;28;20496;-76
2023/02/27 08:18:55;;;;;;;6.10;4.30;;;;;;;4.66;37.08;102508.59;5058711;28;20091;-76
2023/02/27 08:21:23;;;;;;;7.00;3.72;;;;;;;4.61;36.83;102510.59;5034641;28;20053;-76
2023/02/27 08:23:51;;;;;;;6.28;4.22;;;;;;;4.56;36.74;102509.84;5057666;28;20131;-76
2023/02/27 08:26:20;;;;;;;5.88;4.25;;;;;;;4.49;36.68;102511.91;5050263;28;20044;-77
2023/02/27 08:28:48;;;;;;;5.82;3.85;;;;;;;4.42;36.72;102502.22;5031495;28;20059;-76
2023/02/27 08:31:16;;;;;;;6.25;4.10;;;;;;;4.36;36.81;102507.88;5029147;28;20048;-75
2023/02/27 08:33:45;;;;;;;5.30;3.78;;;;;;;4.30;36.77;102501.78;5055608;28;20072;-76
2023/02/27 08:36:13;;;;;;;5.85;3.63;;;;;;;4.23;36.91;102509.22;5048034;28;20037;-74
2023/02/27 08:38:42;;;;;;;6.07;4.20;;;;;;;4.17;36.86;102512.16;5038898;28;20056;-76
2023/02/27 08:41:10;;;;;;;5.53;4.03;;;;;;;4.11;36.94;102515.97;5049389;28;20051;-76
2023/02/27 08:43:38;;;;;;;6.57;4.13;;;;;;;4.06;36.84;102520.63;5035336;28;20060;-77
2023/02/27 08:46:07;;;;;;;6.95;4.00;;;;;;;4.00;37.03;102511.84;5055064;28;20049;-76
2023/02/27 08:48:35;;;;;;;6.68;3.53;;;;;;;3.96;37.03;102519.22;5038713;28;20423;-75
2023/02/27 08:51:04;;;;;;;4.97;3.85;;;;;;;3.93;36.99;102519.28;5041666;28;20056;-75
2023/02/27 08:53:32;;;;;;;6.70;4.00;;;;;;;3.88;36.90;102520.41;5057597;28;20040;-74
2023/02/27 08:56:00;;;;;;;5.68;3.33;;;;;;;3.85;37.17;102509.66;5032939;28;20347;-76
2023/02/27 08:58:28;;;;;;;6.22;3.25;;;;;;;3.82;37.23;102509.75;5039108;28;20044;-75
2023/02/27 09:00:56;;;;;;;4.40;2.95;;;;;;;3.80;36.95;102508.94;5034773;28;20064;-75
2023/02/27 09:03:27;;;;;;;5.55;2.95;;;;;;;3.78;36.98;102515.28;5059812;28;20103;-75
2023/02/27 09:05:56;;;;;;;6.18;3.05;;;;;;;3.76;37.07;102513.56;5009310;28;20554;-76
2023/02/27 09:08:25;;;;;;;5.28;2.55;;;;;;;3.75;36.97;102514.47;5034497;28;20048;-76
2023/02/27 09:10:56;;;;;;;4.45;2.33;;;;;;;3.73;36.47;102517.22;5057320;28;20065;-76
2023/02/27 09:13:25;;;;;;;4.32;2.72;;;;;;;3.71;37.02;102527.25;5057276;28;20045;-74
2023/02/27 09:15:53;;;;;;;4.40;2.38;;;;;;;3.72;36.79;102523.63;5046926;22;20508;-76
2023/02/27 09:18:21;;;;;;;3.88;2.28;;;;;;;3.73;36.87;102533.47;5033274;28;20144;-77
2023/02/27 09:20:50;;;;;;;3.80;2.40;;;;;;;3.76;36.92;102529.81;5058394;28;20094;-77
2023/02/27 09:23:19;;;;;;;4.40;2.15;;;;;;;3.75;37.05;102526.19;5051410;28;20109;-77
2023/02/27 09:25:48;;;;;;;4.63;2.50;;;;;;;3.74;36.85;102535.25;5035396;28;20049;-76
2023/02/27 09:28:16;;;;;;;4.25;2.00;;;;;;;3.81;36.87;102524.25;5048935;28;20044;-76
2023/02/27 09:30:44;;;;;;;3.75;2.10;;;;;;;3.84;36.83;102529.53;5050509;28;20507;-76
2023/02/27 09:33:13;;;;;;;3.78;1.90;;;;;;;3.84;36.75;102526.84;5068872;22;20135;-74
2023/02/27 09:35:41;;;;;;;5.13;2.20;;;;;;;3.86;36.87;102525.84;5043432;28;20045;-74
2023/02/27 09:38:10;;;;;;;4.38;1.85;;;;;;;3.88;36.83;102532.13;5029559;28;20041;-74
2023/02/27 09:40:41;;;;;;;3.30;2.00;;;;;;;3.94;36.63;102531.03;5042814;28;20056;-74
2023/02/27 09:43:16;;;;;;;3.17;1.50;;;;;;;3.97;36.15;102525.50;5047159;28;20107;-73
2023/02/27 09:45:50;;;;;;;3.40;1.60;;;;;;;3.92;36.01;102530.19;5034042;28;20062;-72
2023/02/27 09:48:26;;;;;;;2.75;1.55;;;;;;;3.90;36.36;102526.63;5049554;28;20045;-74
2023/02/27 09:50:54;;;;;;;4.68;1.92;;;;;;;3.83;36.46;102535.91;5052607;28;20355;-74
2023/02/27 09:53:25;;;;;;;4.75;1.90;;;;;;;3.86;36.21;102530.38;5068083;28;20040;-74
2023/02/27 09:55:55;;;;;;;4.57;2.00;;;;;;;3.82;36.39;102537.72;5066772;28;20048;-73
2023/02/27 09:58:40;;;;;;;4.30;2.10;;;;;;;3.73;35.42;102536.19;5067775;28;20040;-74
2023/02/27 10:01:15;;;;;;;5.53;2.28;;;;;;;3.84;36.33;102530.44;5050811;28;20466;-73
2023/02/27 10:04:08;;;;;;;4.85;2.13;;;;;;;3.81;35.96;102530.56;5063438;28;20074;-73
2023/02/27 10:06:43;;;;;;;4.38;2.13;;;;;;;3.80;36.22;102528.78;5058739;28;20048;-74
2023/02/27 10:09:21;;;;;;;5.15;2.05;;;;;;;3.72;36.05;102528.16;5058125;28;20049;-74
2023/02/27 10:12:03;;;;;;;3.50;2.00;;;;;;;3.78;35.66;102525.22;5067753;28;20049;-74
2023/02/27 10:14:41;;;;;;;4.15;2.20;;;;;;;3.66;35.82;102523.78;5050185;28;20052;-72
2023/02/27 10:17:16;;;;;;;4.13;2.05;;;;;;;3.81;35.50;102526.97;5067846;28;20115;-74
2023/02/27 10:19:46;;;;;;;3.55;1.88;;;;;;;3.74;36.28;102524.44;5062204;28;20079;-73
2023/02/27 10:22:21;;;;;;;3.47;1.70;;;;;;;3.78;35.68;102522.53;5067440;28;20131;-74
2023/02/27 10:24:52;;;;;;;3.63;1.77;;;;;;;3.88;36.18;102525.81;5067010;28;20106;-74
2023/02/27 10:27:22;;;;;;;2.72;1.50;;;;;;;3.95;36.53;102525.56;5067530;28;20041;-73
2023/02/27 10:29:53;;;;;;;3.15;1.55;;;;;;;3.92;35.78;102522.06;5048181;28;20048;-71
2023/02/27 10:32:24;;;;;;;3.83;1.70;;;;;;;3.95;35.96;102525.56;5067920;28;20045;-73
2023/02/27 10:34:59;;;;;;;3.72;1.90;;;;;;;4.00;35.75;102530.81;5048636;28;20044;-73
2023/02/27 10:37:29;;;;;;;2.53;1.50;;;;;;;4.06;35.97;102530.59;5067450;28;20068;-73
2023/02/27 10:40:03;;;;;;;3.08;1.50;;;;;;;4.13;35.67;102535.78;5061968;28;20051;-73
2023/02/27 10:42:34;;;;;;;4.78;2.00;;;;;;;4.14;35.77;102529.41;5066254;28;20139;-73
2023/02/27 10:45:04;;;;;;;3.28;1.67;;;;;;;4.21;35.94;102529.22;5066614;28;20051;-73
2023/02/27 10:47:32;;;;;;;3.95;1.90;;;;;;;4.21;35.96;102524.69;5064511;28;20111;-72
2023/02/27 10:50:00;;;;;;;3.00;1.80;;;;;;;4.28;36.03;102537.06;5065923;28;20041;-70
2023/02/27 10:52:28;;;;;;;3.40;1.80;;;;;;;4.32;35.94;102524.28;5049788;28;20405;-74
2023/02/27 10:55:17;;;;;;;3.35;1.75;;;;;;;4.38;35.04;102533.09;5070255;28;20048;-73
2023/02/27 10:57:46;;;;;;;4.40;1.80;;;;;;;4.43;35.72;102527.50;5049512;28;20147;-72
2023/02/27 11:00:32;;;;;;;4.28;1.90;;;;;;;4.49;35.12;102533.59;5066536;28;20404;-72
2023/02/27 11:03:00;;;;;;;2.38;1.50;;;;;;;4.52;35.89;102527.19;5054809;28;20053;-73
2023/02/27 11:05:30;;;;;;;3.78;1.65;;;;;;;4.56;35.65;102531.53;5052115;28;20062;-73
2023/02/27 11:08:12;;;;;;;4.30;2.03;;;;;;;4.62;35.22;102533.16;5070889;28;20033;-73
2023/02/27 11:10:55;;;;;;;3.47;1.70;;;;;;;4.64;34.93;102529.44;5069235;28;20456;-73
2023/02/27 11:13:25;;;;;;;3.33;1.98;;;;;;;4.62;35.44;102536.78;5069061;28;20071;-74
2023/02/27 11:16:08;;;;;;;2.70;1.52;;;;;;;4.72;34.89;102540.88;5070143;28;20052;-71
2023/02/27 11:18:37;;;;;;;3.80;1.55;;;;;;;4.66;35.17;102522.13;5069168;28;20064;-74
2023/02/27 11:21:13;;;;;;;2.58;1.50;;;;;;;4.67;34.27;102526.63;5071125;28;20115;-73
2023/02/27 11:23:51;;;;;;;2.75;1.73;;;;;;;4.71;34.37;102517.44;5065433;28;20399;-72
2023/02/27 11:26:24;;;;;;;3.60;1.60;;;;;;;4.71;34.83;102498.47;5066692;28;20052;-74
2023/02/27 11:29:13;;;;;;;3.20;1.80;;;;;;;4.73;34.36;102509.22;5062970;28;20044;-74
2023/02/27 11:31:48;;;;;;;2.97;1.63;;;;;;;4.68;34.35;102500.38;5070642;28;20495;-73
2023/02/27 11:34:21;;;;;;;3.67;1.73;;;;;;;4.72;34.77;102500.22;5049425;28;20135;-74
2023/02/27 11:36:54;;;;;;;3.15;1.60;;;;;;;4.70;34.80;102485.84;5070460;28;20064;-74
2023/02/27 11:39:26;;;;;;;4.10;1.80;;;;;;;4.75;34.87;102488.38;5049763;28;20098;-73
2023/02/27 11:41:56;;;;;;;3.75;1.98;;;;;;;4.76;35.23;102476.59;5070681;28;20048;-73
2023/02/27 11:44:27;;;;;;;3.35;1.75;;;;;;;4.79;34.77;102484.63;5051961;28;20062;-72
2023/02/27 11:47:23;;;;;;;3.25;1.70;;;;;;;4.83;34.16;102476.28;5068210;28;20455;-74
2023/02/27 11:50:28;;;;;;;3.58;1.60;;;;;;;4.82;33.85;102463.66;5068591;28;20133;-72
2023/02/27 11:53:07;;;;;;;2.92;1.20;;;;;;;4.90;33.96;102468.78;5057927;28;20080;-74
2023/02/27 11:55:37;;;;;;;4.00;1.70;;;;;;;4.96;34.71;102460.44;5069182;28;20144;-72
2023/02/27 11:58:11;;;;;;;3.92;1.67;;;;;;;5.01;34.29;102461.13;5072048;28;20107;-74
2023/02/27 12:00:44;;;;;;;3.80;1.60;;;;;;;5.07;34.49;102449.16;5057209;28;20110;-72